Indianapolis, IN

8:30 AM EST on December 09, 2016 (GMT -0500)
Christian Park | | Change Station
Active Advisory: Special Statement

Elev 791 ft 39.77 °N, 86.10 °W | Updated 3 seconds ago

Snow
Snow
20.4 °F
Feels Like 20 °F
N
1.0
Wind Variable Wind from WSW
Gusts 2.0 mph

Today
High -- | Low -- °F
--% Chance of Precip.
Yesterday
High -- | Low -- °F
Precip. -- in
Pressure 30.55 in
Visibility 10.0 miles
Clouds Overcast 3200 ft
Windchill 20 °F
Dew Point 16 °F
Humidity 84%
Rainfall 0.00 in
Snow Depth Not available.
7:54 AM 5:19 PM
Waxing Gibbous, 74% visible
METAR KEYE 091253Z AUTO 25005KT 10SM OVC032 M06/M09 A3051 RMK AO2 SLP344 T10611094
Pressure 30.55 in
Visibility 10.0 miles
Clouds Overcast 3200 ft
Windchill 20 °F
Dew Point 16 °F
Humidity 84%
Rainfall 0.00 in
Snow Depth Not available.
7:54 AM 5:19 PM
Waxing Gibbous, 74% visible
METAR KEYE 091253Z AUTO 25005KT 10SM OVC032 M06/M09 A3051 RMK AO2 SLP344 T10611094

10-Day Weather Forecast

Almanac

Astronomy

Dec. 09, 2016 Rise Set
Actual Time
Civil Twilight
Nautical Twilight
Astronomical Twilight
Moon
Length of Visible Light
Length of Day
Tomorrow will be .
, % of the Moon is Illuminated

Today's Extremes

State Highs State Lows

Community

WunderPhotos

Upload Photos

1,956,407 photos uploaded!

WunderBlog® & News

Nearby

Air Quality

  Air Quality AQ Index Pollutant
Not available.

Snow Depth

Station Depth Elevation

Earthquake Activity

City Distance Mag. Time & Date
Minimum magnitude displayed is 2.5.

Coastal Water Temperatures

Place Temperature

Stations

Nearby Weather Stations

Station Location Temp. Windchill Dew Point Humidity Wind Precip. Elev Updated Type
                   

Watches & Warnings

Special Statement
Issued: 4:02 AM EST Dec. 9, 2016 – National Weather Service

... Snow has returned to central Indiana...

Snow flurries and light snow showers occurred across central
Indiana overnight and will continue into the morning hours. Some
areas may see minimal... thin accumulations of snow that could
result in some slippery surfaces.

This is the first snowfall of the season for much of central
Indiana. Exercise caution this morning if you are driving and
encounter any snow accumulations.


Puma

402 am EST Fri Dec 9 2016

... Snow has returned to central Indiana...

Snow flurries and light snow showers occurred across central
Indiana overnight and will continue into the morning hours. Some
areas may see minimal... thin accumulations of snow that could
result in some slippery surfaces.

This is the first snowfall of the season for much of central
Indiana. Exercise caution this morning if you are driving and
encounter any snow accumulations.


Puma